• Join FlightAware (Why Join?)
  • Login
  • US Flag 
02:02PM EST


 

Airport Tracker/Info


-or-


 

Live Flight TrackerFlight Track Log ✈ ASQ5941 ✈ 11-Jul-2013 ✈ KORD - KAVP

Flight Track Log - Related Links

Times and Time Zones

All times are in EDT time to prevent confusion due to time zone crossing. See the ASQ5941 flight status page for this flight to view local times or setup timezone preferences in your user account.

Time Position Orientation Groundspeed Altitude Reporting Facility
EDT Latitude Longitude Course Direction KTS MPH feet Rate Location/Type
02:59PM 42.0167 -87.8333 80° East 187 215 3,200  Level Chicago TRACON
03:00PM 42.0167 -87.7500 90° East 257 296 4,500 1,860 Climbing Chicago TRACON
03:01PM 42.0423 -87.4520 83° East  Level FlightAware Approximate
03:01PM 42.0167 -87.6500 90° East 260 299 7,000  Level Chicago TRACON
03:01PM 42.0122 -87.6042 97° East 259 298 8,100 2,040 Climbing Chicago Center
03:02PM 42.0606 -87.2984 78° East  Level FlightAware Approximate
03:02PM 42.0308 -87.5078 75° East 267 307 10,200  Level Chicago Center
03:03PM 42.0840 -87.1458 77° East  Level FlightAware Approximate
03:03PM 42.0494 -87.4050 76° East 279 321 12,200  Level Chicago Center
03:04PM 42.1005 -86.9964 80° East  Level FlightAware Approximate
03:04PM 42.0694 -87.2983 76° East 292 336 14,100  Level Chicago Center
03:05PM 42.0908 -87.1847 76° East 308 354 15,200 900 Climbing Chicago Center
03:06PM 42.1161 -87.0314 77° East 346 398 16,000 840 Climbing Chicago Center
03:07PM 42.1183 -86.8886 89° East 374 430 17,000 900 Climbing Chicago Center
03:08PM 42.1231 -86.7469 87° East 379 436 17,900 1,020 Climbing Chicago Center
03:09PM 42.1283 -86.5917 87° East 386 444 19,200 1,200 Climbing Chicago Center
03:11PM 42.1344 -86.4450 87° East 391 450 20,400 1,080 Climbing Chicago Center
03:12PM 42.1378 -86.2989 88° East 391 450 21,500 960 Climbing Chicago Center
03:13PM 42.1436 -86.1467 87° East 404 465 22,500 1,020 Climbing Chicago Center
03:14PM 42.1433 -85.9944 90° East 406 467 23,700 1,200 Climbing Chicago Center
03:15PM 42.1417 -85.8261 91° East 405 466 25,000 1,200 Climbing Chicago Center
03:16PM 42.1403 -85.6756 91° East 404 465 26,200 1,140 Climbing Chicago Center
03:17PM 42.1389 -85.5278 91° East 398 458 27,400 1,140 Climbing Chicago Center
03:18PM 42.1369 -85.3808 91° East 393 452 28,600 1,140 Climbing Chicago Center
03:19PM 42.1364 -85.2022 90° East 399 459 29,800 1,020 Climbing Chicago Center
03:20PM 42.1344 -85.0517 91° East 402 463 30,800 540 Climbing Chicago Center
03:21PM 42.1306 -84.8978 92° East 411 473 31,000 60 Climbing Chicago Center
03:22PM 42.1278 -84.7331 91° East 437 503 31,000  Level Chicago Center
03:23PM 42.1247 -84.5578 91° East 463 533 31,000  Level Chicago Center
03:24PM 42.1369 -84.3483 85° East 469 540 31,000  Level Chicago Center
03:25PM 42.1514 -84.1881 83° East 459 528 31,000  Level Cleveland Center
03:26PM 42.1736 -84.0100 80° East 464 534 31,000  Level Cleveland Center
03:27PM 42.1911 -83.8369 82° East 469 540 31,000  Level Cleveland Center
03:28PM 42.2086 -83.6556 83° East 474 545 31,000  Level Cleveland Center
03:29PM 42.2256 -83.4883 82° East 482 555 31,000  Level Cleveland Center
03:30PM 42.2300 -83.3061 88° East 487 560 31,000  Level Cleveland Center
03:31PM 42.2300 -83.1211 90° East 487 560 31,000  Level Cleveland Center
03:32PM 42.2319 -82.9361 89° East 487 560 31,000  Level Cleveland Center
03:33PM 42.2311 -82.7536 90° East 487 560 31,000  Level Cleveland Center
03:34PM 42.2325 -82.5714 89° East 493 567 31,000  Level Cleveland Center
03:35PM 42.2272 -82.3833 92° East 488 562 31,000  Level Cleveland Center
03:36PM 42.2175 -82.2036 94° East 488 562 31,000  Level Cleveland Center
03:37PM 42.2033 -82.0042 95° East 483 556 31,000  Level Cleveland Center
03:38PM 42.1931 -81.8219 94° East 483 556 31,000  Level Cleveland Center
03:39PM 42.1800 -81.6619 96° East 483 556 31,000  Level Cleveland Center
03:40PM 42.1692 -81.4769 94° East 483 556 31,000  Level Cleveland Center
03:41PM 42.1558 -81.2944 96° East 483 556 31,000  Level Cleveland Center
03:42PM 42.1442 -81.1125 95° East 483 556 31,000  Level Cleveland Center
03:43PM 42.1303 -80.9303 96° East 483 556 31,000  Level Cleveland Center
03:44PM 42.1183 -80.7286 94° East 488 562 31,000  Level Cleveland Center
03:45PM 42.1017 -80.5467 97° East 488 562 31,000  Level Cleveland Center
03:46PM 42.0889 -80.3678 95° East 483 556 31,000  Level Cleveland Center
03:47PM 42.0761 -80.1831 95° East 483 556 31,000  Level Cleveland Center
03:48PM 42.0606 -79.9958 96° East 489 563 31,000  Level Cleveland Center
03:49PM 42.0472 -79.8367 96° East 489 563 31,000  Level Cleveland Center
03:50PM 42.0333 -79.6522 96° East 484 557 31,000  Level Cleveland Center
03:51PM 42.0150 -79.4708 98° East 484 557 31,000  Level Cleveland Center
03:52PM 41.9986 -79.2839 97° East 484 557 31,000 -240 Level Cleveland Center
03:53PM 41.9839 -79.1000 96° East 484 557 30,600 -960 Descending Cleveland Center
03:54PM 41.9667 -78.9158 97° East 484 557 29,100 -1,260 Descending Cleveland Center
03:55PM 41.9494 -78.7350 97° East 491 565 28,100 -900 Descending Cleveland Center
03:56PM 41.9314 -78.5456 97° East 497 572 27,300 -1,140 Descending Cleveland Center
03:57PM 41.9156 -78.3592 96° East 497 572 25,900 -1,440 Descending Cleveland Center
03:58PM 41.8972 -78.1783 98° East 498 573 24,500 -960 Descending Cleveland Center
04:00PM 41.8564 -77.8136 98° East 471 542 23,000 -540 Descending New York Center
04:01PM 41.8158 -77.6481 108° East 465 535 23,000  Level New York Center
04:02PM 41.7736 -77.4767 108° East 470 541 23,000  Level New York Center
04:03PM 41.7439 -77.3014 103° East 470 541 23,000  Level New York Center
04:04PM 41.7175 -77.1319 102° East 470 541 23,000 -900 Level New York Center
04:05PM 41.6892 -76.9597 102° East 470 541 21,200 -2,460 Descending New York Center
04:06PM 41.6642 -76.7964 102° East 459 528 18,100 -3,060 Descending New York Center
04:07PM 41.6367 -76.6411 103° East 439 505 15,100 -3,300 Descending New York Center
04:08PM 41.6092 -76.4778 103° East 407 468 11,700 -2,580 Descending New York Center
04:09PM 41.5883 -76.3458 102° East 379 436 10,100 -1,140 Descending New York Center
04:10PM 41.5706 -76.2389 102° East 329 379 9,400 -660 Descending New York Center
04:11PM 41.5519 -76.1458 105° East 290 334 8,800 -1,140 Descending New York Center
04:12PM 41.5100 -76.0567 122° Southeast 275 316 7,200 -1,560 Descending New York Center
04:13PM 41.4617 -75.9697 127° Southeast 275 316 5,700 -1,140 Descending New York Center
04:14PM 41.3903 -75.9394 162° South 260 299 5,000 -660 Descending New York Center
04:15PM 41.3161 -75.9169 167° South 265 305 4,500 -540 Descending New York Center
04:16PM 41.2658 -75.8772 149° Southeast 265 305 4,000 -540 Descending New York Center